createdAt,value
2019-04-28T00:01:30.968Z,7.18
2019-04-28T00:04:37.300Z,7.17
2019-04-28T00:07:44.901Z,7.26
2019-04-28T00:10:53.258Z,7.66
2019-04-28T00:14:01.916Z,7.65
2019-04-28T00:17:11.144Z,7.64
2019-04-28T00:20:24.089Z,7.56
2019-04-28T00:23:57.518Z,7.68
2019-04-28T00:27:06.118Z,7.27
2019-04-28T00:30:13.790Z,7.88
2019-04-28T00:33:20.341Z,7.13
2019-04-28T00:36:26.880Z,6.68
2019-04-28T00:39:33.320Z,6.56
2019-04-28T00:42:41.378Z,6.49
2019-04-28T00:45:48.073Z,6.46
2019-04-28T00:48:54.542Z,6.51
2019-04-28T00:52:03.073Z,6.83
2019-04-28T00:55:11.053Z,6.57
2019-04-28T00:58:17.581Z,7.12
2019-04-28T01:01:40.674Z,6.36
2019-04-28T01:08:01.218Z,6.96
2019-04-28T01:11:08.690Z,7.16
2019-04-28T01:14:15.188Z,7.39
2019-04-28T01:17:27.278Z,7.29
2019-04-28T01:20:34.167Z,7.14
2019-04-28T01:23:40.747Z,7.05
2019-04-28T01:26:50.740Z,7.34
2019-04-28T01:30:06.257Z,7.54
2019-04-28T01:33:21.659Z,7.22
2019-04-28T01:36:30.095Z,6.75
2019-04-28T01:39:36.429Z,7.33
2019-04-28T01:42:43.068Z,7.46
2019-04-28T01:45:50.248Z,7.24
2019-04-28T01:48:57.067Z,6.88
2019-04-28T01:52:05.771Z,6.99
2019-04-28T01:55:12.499Z,6.84
2019-04-28T01:58:20.501Z,6.87
2019-04-28T02:01:27.299Z,7.02
2019-04-28T02:04:33.847Z,6.96
2019-04-28T02:07:40.843Z,7.19
2019-04-28T02:10:47.568Z,7.40
2019-04-28T02:13:54.099Z,7.13
2019-04-28T02:17:00.696Z,7.04
2019-04-28T02:20:10.243Z,6.92
2019-04-28T02:23:24.847Z,7.38
2019-04-28T02:26:31.342Z,6.92
2019-04-28T02:29:41.417Z,7.20
2019-04-28T02:32:45.997Z,7.25
2019-04-28T02:35:52.582Z,7.50
2019-04-28T02:39:00.809Z,7.32
2019-04-28T02:42:10.925Z,7.40
2019-04-28T02:45:21.973Z,7.49
2019-04-28T02:48:31.045Z,7.41
2019-04-28T02:51:42.219Z,7.18
2019-04-28T02:54:50.713Z,6.92
2019-04-28T02:57:57.322Z,7.38
2019-04-28T03:01:18.530Z,7.42
2019-04-28T03:04:15.376Z,7.40
2019-04-28T03:07:22.038Z,7.06
2019-04-28T03:10:31.084Z,7.15
2019-04-28T03:13:37.572Z,7.50
2019-04-28T03:16:45.202Z,7.47
2019-04-28T03:19:52.074Z,7.04
2019-04-28T03:23:00.912Z,7.08
2019-04-28T03:26:26.353Z,7.49
2019-04-28T03:29:43.849Z,7.39
2019-04-28T03:32:59.434Z,7.26
2019-04-28T03:36:03.613Z,7.21
2019-04-28T03:39:11.069Z,7.34
2019-04-28T03:42:17.349Z,6.97
2019-04-28T03:45:30.674Z,6.90
2019-04-28T03:48:37.233Z,6.95
2019-04-28T03:51:44.274Z,7.08
2019-04-28T03:54:51.183Z,7.28
2019-04-28T03:57:57.714Z,7.30
2019-04-28T04:01:10.442Z,7.35
2019-04-28T04:04:15.851Z,7.20
2019-04-28T04:07:22.711Z,7.35
2019-04-28T04:11:00.501Z,7.07
2019-04-28T04:14:16.995Z,6.68
2019-04-28T04:17:35.492Z,7.21
2019-04-28T04:20:42.054Z,6.94
2019-04-28T04:23:50.961Z,6.86
2019-04-28T04:26:56.778Z,6.77
2019-04-28T04:30:05.317Z,7.05
2019-04-28T04:33:11.815Z,7.09
2019-04-28T04:36:20.753Z,7.25
2019-04-28T04:39:26.752Z,7.26
2019-04-28T04:42:33.244Z,6.98
2019-04-28T04:45:40.501Z,6.74
2019-04-28T04:48:47.550Z,7.40
2019-04-28T04:51:54.102Z,7.02
2019-04-28T04:55:01.664Z,7.00
2019-04-28T04:58:10.548Z,7.04
2019-04-28T05:01:41.382Z,7.04
2019-04-28T05:04:55.165Z,7.30
2019-04-28T05:08:01.939Z,7.42
2019-04-28T05:11:09.605Z,7.13
2019-04-28T05:14:19.643Z,7.45
2019-04-28T05:17:26.677Z,7.06
2019-04-28T05:20:33.488Z,7.42
2019-04-28T05:23:46.702Z,7.24
2019-04-28T05:26:53.139Z,7.29
2019-04-28T05:30:02.561Z,7.11
2019-04-28T05:33:07.720Z,6.91
2019-04-28T05:36:14.260Z,6.94
2019-04-28T05:39:20.892Z,7.09
2019-04-28T05:42:27.388Z,7.38
2019-04-28T05:45:33.859Z,7.13
2019-04-28T05:48:46.650Z,7.23
2019-04-28T05:51:54.921Z,7.04
2019-04-28T05:55:11.461Z,7.17
2019-04-28T05:58:32.528Z,7.36
2019-04-28T06:01:56.966Z,6.91
2019-04-28T06:05:04.899Z,6.74
2019-04-28T06:08:30.389Z,6.83
2019-04-28T06:11:39.762Z,6.96
2019-04-28T06:14:46.558Z,6.80
2019-04-28T06:17:53.071Z,7.03
2019-04-28T06:20:59.515Z,7.35
2019-04-28T06:24:07.787Z,7.09
2019-04-28T06:27:14.300Z,6.97
2019-04-28T06:30:23.195Z,6.74
2019-04-28T06:33:29.360Z,6.95
2019-04-28T06:36:35.861Z,7.09
2019-04-28T06:39:42.542Z,7.27
2019-04-28T06:42:50.709Z,7.55
2019-04-28T06:45:57.249Z,7.27
2019-04-28T06:49:04.050Z,7.45
2019-04-28T06:52:10.405Z,7.45
2019-04-28T06:55:16.861Z,7.18
2019-04-28T06:58:24.531Z,7.15
2019-04-28T07:01:31.019Z,7.15
2019-04-28T07:04:37.441Z,7.27
2019-04-28T07:07:47.040Z,7.30
2019-04-28T07:10:53.466Z,7.26
2019-04-28T07:14:00.051Z,7.28
2019-04-28T07:17:09.344Z,7.07
2019-04-28T07:20:40.485Z,7.10
2019-04-28T07:23:48.705Z,6.95
2019-04-28T07:26:55.225Z,7.27
2019-04-28T07:30:02.936Z,7.33
2019-04-28T07:33:09.544Z,7.27
2019-04-28T07:36:16.080Z,7.18
2019-04-28T07:39:22.684Z,7.08
2019-04-28T07:42:29.128Z,7.32
2019-04-28T07:45:35.709Z,7.68
2019-04-28T07:48:44.084Z,7.77
2019-04-28T07:52:04.259Z,7.65
2019-04-28T07:55:12.473Z,7.90
2019-04-28T07:58:18.983Z,7.80
2019-04-28T08:01:27.041Z,7.62
2019-04-28T08:04:33.605Z,7.86
2019-04-28T08:07:40.037Z,8.05
2019-04-28T08:10:47.086Z,8.00
2019-04-28T08:13:53.631Z,8.27
2019-04-28T08:17:00.121Z,8.39
2019-04-28T08:20:07.809Z,8.37
2019-04-28T08:23:14.359Z,8.41
2019-04-28T08:26:20.858Z,8.33
2019-04-28T08:29:27.527Z,8.24
2019-04-28T08:32:49.563Z,8.12
2019-04-28T08:35:56.050Z,8.13
2019-04-28T08:39:02.789Z,7.73
2019-04-28T08:42:11.224Z,7.85
2019-04-28T08:45:17.949Z,8.13
2019-04-28T08:48:25.334Z,7.97
2019-04-28T08:51:31.826Z,8.05
2019-04-28T08:54:38.667Z,7.98
2019-04-28T08:57:45.259Z,8.18
2019-04-28T09:00:52.849Z,8.16
2019-04-28T09:03:59.461Z,8.08
2019-04-28T09:07:06.509Z,7.72
2019-04-28T09:10:13.563Z,7.79
2019-04-28T09:13:20.029Z,7.73
2019-04-28T09:16:26.583Z,7.47
2019-04-28T09:19:33.151Z,7.36
2019-04-28T09:22:40.604Z,7.29
2019-04-28T09:25:47.086Z,7.18
2019-04-28T09:28:53.740Z,7.38
2019-04-28T09:32:02.871Z,7.28
2019-04-28T09:35:12.056Z,7.60
2019-04-28T09:38:18.762Z,7.45
2019-04-28T09:41:25.279Z,6.93
2019-04-28T09:44:31.693Z,7.18
2019-04-28T09:47:39.278Z,7.28
2019-04-28T09:50:48.736Z,7.09
2019-04-28T09:53:55.191Z,7.36
2019-04-28T09:57:01.962Z,7.47
2019-04-28T10:00:11.419Z,7.08
2019-04-28T10:03:17.998Z,7.74
2019-04-28T10:06:27.140Z,8.01
2019-04-28T10:09:33.717Z,8.12
2019-04-28T10:12:40.305Z,8.13
2019-04-28T10:15:46.702Z,8.02
2019-04-28T10:18:53.221Z,8.05
2019-04-28T10:22:00.940Z,8.25
2019-04-28T10:25:08.530Z,8.23
2019-04-28T10:28:15.093Z,7.83
2019-04-28T10:31:21.583Z,7.93
2019-04-28T10:34:28.059Z,7.79
2019-04-28T10:37:37.710Z,7.98
2019-04-28T10:40:59.479Z,7.94
2019-04-28T10:44:08.553Z,7.95
2019-04-28T10:47:14.884Z,8.06
2019-04-28T10:50:21.556Z,8.16
2019-04-28T10:53:28.051Z,8.27
2019-04-28T10:56:34.480Z,8.03
2019-04-28T10:59:41.013Z,7.96
2019-04-28T11:02:47.497Z,7.97
2019-04-28T11:05:54.891Z,8.00
2019-04-28T11:09:30.664Z,8.32
2019-04-28T11:12:34.925Z,7.97
2019-04-28T12:52:19.352Z,9.68
2019-04-28T12:55:25.843Z,9.92
2019-04-28T13:02:18.964Z,10.56
2019-04-28T13:05:25.341Z,10.85
2019-04-28T13:12:03.345Z,11.30
2019-04-28T13:15:10.097Z,11.68
2019-04-28T13:18:16.524Z,11.49
2019-04-28T13:21:22.945Z,11.35
2019-04-28T13:24:29.468Z,11.18
2019-04-28T13:27:35.883Z,10.90
2019-04-28T13:30:42.407Z,10.96
2019-04-28T13:33:56.284Z,10.76
2019-04-28T13:36:57.430Z,10.94
2019-04-28T13:40:10.020Z,11.71
2019-04-28T13:43:16.834Z,12.66
2019-04-28T13:46:23.337Z,12.34
2019-04-28T13:49:48.972Z,12.24
2019-04-28T13:52:55.641Z,12.24
2019-04-28T13:56:03.789Z,12.75
2019-04-28T13:59:15.570Z,12.48
2019-04-28T14:09:18.735Z,12.73
2019-04-28T14:12:28.716Z,13.02
2019-04-28T14:15:35.362Z,12.56
2019-04-28T14:18:43.956Z,12.70
2019-04-28T14:21:50.452Z,12.83
2019-04-28T14:24:56.883Z,13.07
2019-04-28T14:28:03.532Z,13.36
2019-04-28T14:31:09.983Z,13.10
2019-04-28T14:34:16.515Z,12.73
2019-04-28T14:37:22.996Z,12.88
2019-04-28T14:40:29.650Z,12.59
2019-04-28T14:43:36.242Z,12.76
2019-04-28T14:46:42.765Z,12.31
2019-04-28T14:49:49.284Z,11.32
2019-04-28T14:52:56.149Z,12.00
2019-04-28T14:56:02.540Z,11.74
2019-04-28T14:59:09.149Z,12.21
2019-04-28T15:02:40.460Z,11.89
2019-04-28T15:05:56.888Z,12.11
2019-04-28T15:09:23.474Z,12.46
2019-04-28T15:12:30.965Z,12.33
2019-04-28T15:15:37.637Z,12.20
2019-04-28T15:18:44.191Z,12.27
2019-04-28T15:21:50.729Z,12.28
2019-04-28T15:24:57.228Z,12.17
2019-04-28T15:28:03.687Z,12.02
2019-04-28T15:31:11.447Z,11.91
2019-04-28T15:34:17.949Z,12.21
2019-04-28T15:37:24.471Z,12.10
2019-04-28T15:40:30.993Z,12.04
2019-04-28T15:43:37.536Z,11.76
2019-04-28T15:46:44.058Z,11.67
2019-04-28T15:49:50.664Z,11.80
2019-04-28T15:52:57.163Z,12.13
2019-04-28T15:56:22.691Z,12.08
2019-04-28T15:59:29.667Z,11.93
2019-04-28T16:02:36.271Z,12.04
2019-04-28T16:05:42.743Z,12.21
2019-04-28T16:08:51.262Z,11.83
2019-04-28T16:11:57.454Z,12.04
2019-04-28T16:15:07.258Z,11.76
2019-04-28T16:18:12.646Z,11.84
2019-04-28T16:21:19.183Z,12.10
2019-04-28T16:24:25.635Z,11.80
2019-04-28T16:27:34.280Z,11.53
2019-04-28T16:30:40.758Z,11.73
2019-04-28T16:33:47.168Z,11.95
2019-04-28T16:36:53.697Z,11.62
2019-04-28T16:40:00.246Z,11.72
2019-04-28T16:43:07.285Z,11.54
2019-04-28T16:46:13.722Z,11.56
2019-04-28T16:49:20.242Z,11.29
2019-04-28T16:52:26.786Z,11.33
2019-04-28T16:55:40.623Z,11.28
2019-04-28T16:59:06.175Z,11.22
2019-04-28T17:02:18.586Z,11.27
2019-04-28T17:05:25.093Z,11.26
2019-04-28T17:08:31.691Z,10.79
2019-04-28T17:11:38.125Z,11.17
2019-04-28T17:14:44.587Z,11.06
2019-04-28T17:17:51.477Z,11.31
2019-04-28T17:20:58.018Z,11.21
2019-04-28T17:24:04.893Z,11.11
2019-04-28T17:27:11.439Z,10.60
2019-04-28T17:30:18.002Z,10.40
2019-04-28T17:33:24.387Z,10.79
2019-04-28T17:36:30.766Z,10.46
2019-04-28T17:39:37.312Z,10.24
2019-04-28T17:42:43.885Z,10.18
2019-04-28T17:45:55.679Z,10.16
